EISG/SXL METAR and TAF weather

Enter ICAO airport designator
Station Type Date Time Source
EISG METAR 2018/10/20 18:00 UTC NOAA

EISG 201800Z 18006KT 150V220 9999 OVC048 15/14 Q1025


Station Type Date Time Source
EISG Decoded METAR 2018/10/20 18:00 UTC NOAA

Station name not available
Oct 20, 2018 - 02:00 PM EDT / 2018.10.20 1800 UTC
Wind: from the S (180 degrees) at 7 MPH (6 KT) (direction variable):0
Visibility: greater than 7 mile(s):0
Sky conditions: overcast
Temperature: 59 F (15 C)
Dew Point: 57 F (14 C)
Relative Humidity: 93%
Pressure (altimeter): 30.27 in. Hg (1025 hPa)
ob: EISG 201800Z 18006KT 150V220 9999 OVC048 15/14 Q1025
cycle: 18

Station Type Date Time Source
EISG TAF UTC NOAA

Error!


Example: see airport list